createdAt,value
2019-05-11T00:01:13.976Z,118.09
2019-05-11T00:04:19.143Z,118.58
2019-05-11T00:07:24.526Z,118.59
2019-05-11T00:10:29.710Z,118.24
2019-05-11T00:13:35.029Z,118.61
2019-05-11T00:16:40.174Z,118.68
2019-05-11T00:19:45.469Z,118.84
2019-05-11T00:22:50.619Z,118.90
2019-05-11T00:25:55.801Z,117.69
2019-05-11T00:29:01.010Z,116.90
2019-05-11T00:32:07.268Z,116.46
2019-05-11T00:35:14.080Z,116.63
2019-05-11T00:38:21.994Z,117.01
2019-05-11T00:41:27.214Z,116.76
2019-05-11T00:44:33.419Z,117.19
2019-05-11T00:47:38.621Z,117.01
2019-05-11T00:50:43.884Z,116.21
2019-05-11T00:53:49.011Z,116.11
2019-05-11T00:56:54.168Z,115.95
2019-05-11T00:59:59.310Z,116.29
2019-05-11T01:03:04.467Z,116.23
2019-05-11T01:06:09.685Z,116.36
2019-05-11T01:09:14.942Z,116.27
2019-05-11T01:12:20.083Z,116.65
2019-05-11T01:15:25.293Z,116.89
2019-05-11T01:18:30.439Z,117.10
2019-05-11T01:21:35.719Z,117.18
2019-05-11T01:24:40.900Z,117.25
2019-05-11T01:27:46.066Z,117.24
2019-05-11T01:30:51.224Z,117.49
2019-05-11T01:33:56.380Z,117.55
2019-05-11T01:37:01.550Z,117.78
2019-05-11T01:40:07.626Z,117.77
2019-05-11T01:43:13.991Z,117.65
2019-05-11T01:46:19.111Z,117.48
2019-05-11T01:49:25.605Z,117.63
2019-05-11T01:52:30.800Z,117.35
2019-05-11T01:55:36.058Z,117.76
2019-05-11T01:58:41.246Z,117.71
2019-05-11T02:01:46.410Z,118.07
2019-05-11T02:05:10.559Z,117.95
2019-05-11T02:08:16.764Z,118.10
2019-05-11T02:11:22.080Z,118.16
2019-05-11T02:14:27.344Z,118.61
2019-05-11T02:17:32.498Z,118.34
2019-05-11T02:20:37.635Z,118.61
2019-05-11T02:23:42.773Z,118.39
2019-05-11T02:26:47.974Z,118.26
2019-05-11T02:29:53.154Z,117.28
2019-05-11T02:32:58.331Z,117.26
2019-05-11T02:36:03.512Z,117.36
2019-05-11T02:39:08.791Z,117.35
2019-05-11T02:42:14.001Z,117.12
2019-05-11T02:45:52.248Z,117.49
2019-05-11T02:48:57.395Z,117.30
2019-05-11T02:52:02.791Z,117.55
2019-05-11T02:55:09.517Z,117.49
2019-05-11T02:58:14.805Z,117.96
2019-05-11T03:01:19.911Z,117.86
2019-05-11T03:04:25.082Z,118.08
2019-05-11T03:07:30.239Z,117.87
2019-05-11T03:10:35.465Z,118.22
2019-05-11T03:13:40.629Z,118.14
2019-05-11T03:16:47.516Z,118.75
2019-05-11T03:19:52.669Z,118.32
2019-05-11T03:22:57.900Z,118.87
2019-05-11T03:26:03.261Z,118.99
2019-05-11T03:29:12.979Z,118.61
2019-05-11T03:32:18.229Z,118.98
2019-05-11T03:35:23.610Z,119.00
2019-05-11T03:38:28.855Z,119.00
2019-05-11T03:41:33.949Z,119.00
2019-05-11T03:44:39.141Z,119.00
2019-05-11T03:47:44.337Z,119.00
2019-05-11T03:50:49.562Z,119.00
2019-05-11T03:53:54.802Z,118.91
2019-05-11T03:57:00.015Z,118.37
2019-05-11T04:00:05.734Z,118.45
2019-05-11T04:03:11.010Z,118.26
2019-05-11T04:06:16.230Z,117.84
2019-05-11T04:09:21.620Z,118.01
2019-05-11T04:12:34.540Z,117.85
2019-05-11T04:15:36.951Z,117.99
2019-05-11T04:18:42.201Z,117.52
2019-05-11T04:21:49.875Z,117.71
2019-05-11T04:24:55.058Z,117.31
2019-05-11T04:28:00.266Z,117.03
2019-05-11T04:31:05.391Z,117.10
2019-05-11T04:34:11.443Z,116.45
2019-05-11T04:37:16.641Z,116.27
2019-05-11T04:40:21.887Z,115.82
2019-05-11T04:43:27.358Z,115.78
2019-05-11T04:46:32.577Z,116.12
2019-05-11T04:49:37.749Z,116.34
2019-05-11T04:52:42.967Z,115.85
2019-05-11T04:55:48.213Z,115.49
2019-05-11T04:58:55.106Z,115.36
2019-05-11T05:02:00.300Z,115.14
2019-05-11T05:05:06.152Z,114.63
2019-05-11T05:08:11.275Z,113.62
2019-05-11T05:11:16.411Z,114.20
2019-05-11T05:14:21.696Z,113.66
2019-05-11T05:17:26.982Z,113.84
2019-05-11T05:20:32.152Z,113.16
2019-05-11T05:23:37.384Z,112.47
2019-05-11T05:26:45.070Z,109.97
2019-05-11T05:29:50.196Z,109.00
2019-05-11T05:32:55.399Z,109.91
2019-05-11T05:36:00.651Z,109.63
2019-05-11T05:39:09.576Z,109.67
2019-05-11T05:42:15.771Z,110.58
2019-05-11T05:45:20.969Z,109.05
2019-05-11T05:48:26.130Z,110.13
2019-05-11T05:51:31.270Z,108.94
2019-05-11T05:54:36.493Z,108.78
2019-05-11T05:57:41.654Z,106.84
2019-05-11T06:00:46.970Z,108.09
2019-05-11T06:03:53.754Z,105.33
2019-05-11T06:07:00.525Z,106.76
2019-05-11T06:10:06.072Z,104.11
2019-05-11T06:13:12.651Z,104.61
2019-05-11T06:16:17.850Z,100.02
2019-05-11T06:19:23.049Z,100.01
2019-05-11T06:22:28.527Z,99.89
2019-05-11T06:25:37.145Z,98.02
2019-05-11T06:28:42.317Z,95.92
2019-05-11T06:31:47.539Z,93.90
2019-05-11T06:34:52.745Z,92.90
2019-05-11T06:37:57.919Z,87.12
2019-05-11T06:41:03.111Z,86.78
2019-05-11T06:44:08.285Z,84.02
2019-05-11T06:47:13.451Z,81.30
2019-05-11T06:50:19.095Z,86.91
2019-05-11T06:53:27.825Z,86.86
2019-05-11T06:56:31.436Z,88.30
2019-05-11T06:59:38.912Z,91.08
2019-05-11T07:02:44.163Z,91.67
2019-05-11T07:05:49.460Z,88.49
2019-05-11T07:08:54.982Z,93.96
2019-05-11T07:12:00.188Z,92.64
2019-05-11T07:15:05.726Z,91.54
2019-05-11T07:18:10.981Z,88.91
2019-05-11T07:21:17.232Z,90.52
2019-05-11T07:24:31.811Z,89.81
2019-05-11T07:27:37.062Z,90.90
2019-05-11T07:30:42.315Z,93.64
2019-05-11T07:33:48.991Z,92.45
2019-05-11T07:36:54.559Z,94.16
2019-05-11T07:40:04.191Z,93.30
2019-05-11T07:43:09.968Z,93.61
2019-05-11T07:46:17.970Z,95.56
2019-05-11T07:49:23.533Z,94.68
2019-05-11T07:52:28.892Z,97.57
2019-05-11T07:55:35.095Z,97.44
2019-05-11T07:58:40.269Z,95.13
2019-05-11T08:01:47.742Z,94.01
2019-05-11T08:04:52.295Z,94.12
2019-05-11T08:07:59.518Z,94.29
2019-05-11T08:11:04.419Z,92.71
2019-05-11T08:14:09.784Z,91.42
2019-05-11T08:17:14.975Z,92.55
2019-05-11T08:20:20.115Z,92.68
2019-05-11T08:23:25.341Z,91.06
2019-05-11T08:26:30.571Z,92.22
2019-05-11T08:29:38.216Z,94.18
2019-05-11T08:32:42.925Z,92.16
2019-05-11T08:35:49.352Z,93.90
2019-05-11T08:38:58.244Z,91.73
2019-05-11T08:42:03.498Z,93.72
2019-05-11T08:45:17.158Z,92.37
2019-05-11T08:48:18.726Z,91.07
2019-05-11T08:51:25.145Z,93.94
2019-05-11T08:54:30.380Z,93.80
2019-05-11T08:57:35.591Z,92.06
2019-05-11T09:00:40.850Z,92.82
2019-05-11T09:03:47.786Z,94.96
2019-05-11T09:06:52.881Z,94.42
2019-05-11T09:09:58.699Z,94.14
2019-05-11T09:13:03.970Z,97.76
2019-05-11T09:16:09.134Z,97.19
2019-05-11T09:19:14.320Z,98.37
2019-05-11T09:22:19.571Z,96.30
2019-05-11T09:25:24.735Z,96.46
2019-05-11T09:28:29.905Z,97.02
2019-05-11T09:31:35.092Z,97.36
2019-05-11T09:34:40.243Z,96.39
2019-05-11T09:37:45.606Z,99.41
2019-05-11T09:40:53.182Z,100.96
2019-05-11T09:43:58.643Z,99.30
2019-05-11T09:47:04.049Z,99.90
2019-05-11T09:50:09.263Z,96.28
2019-05-11T09:53:14.466Z,94.61
2019-05-11T09:56:19.699Z,94.11
2019-05-11T09:59:24.918Z,93.93
2019-05-11T10:02:30.121Z,95.09
2019-05-11T10:05:35.377Z,94.28
2019-05-11T10:08:40.696Z,93.43
2019-05-11T10:11:48.017Z,92.43
2019-05-11T10:14:52.767Z,92.52
2019-05-11T10:17:58.903Z,94.44
2019-05-11T10:21:04.234Z,90.65
2019-05-11T10:24:09.527Z,93.13
2019-05-11T10:27:14.637Z,93.19
2019-05-11T10:30:20.605Z,94.33
2019-05-11T10:33:27.977Z,93.09
2019-05-11T10:36:32.782Z,93.48
2019-05-11T10:39:39.585Z,94.43
2019-05-11T10:42:44.675Z,92.14
2019-05-11T10:45:49.926Z,90.35
2019-05-11T10:48:55.116Z,89.67
2019-05-11T10:52:00.347Z,88.94
2019-05-11T10:55:08.502Z,87.33
2019-05-11T10:58:12.872Z,88.89
2019-05-11T11:01:18.365Z,88.81
2019-05-11T11:04:23.668Z,87.42
2019-05-11T11:07:29.093Z,87.25
2019-05-11T11:10:34.297Z,88.20
2019-05-11T11:13:39.477Z,88.79
2019-05-11T11:16:44.730Z,86.72
2019-05-11T11:19:51.007Z,83.50
2019-05-11T11:22:58.404Z,82.05
2019-05-11T11:26:03.166Z,85.69
2019-05-11T11:29:11.705Z,83.25
2019-05-11T11:32:18.577Z,82.54
2019-05-11T11:35:23.677Z,83.86
2019-05-11T11:38:29.007Z,81.64
2019-05-11T11:41:34.268Z,84.34
2019-05-11T11:44:39.480Z,82.50
2019-05-11T11:47:44.683Z,81.42
2019-05-11T11:50:49.945Z,82.24
2019-05-11T11:53:55.167Z,83.67
2019-05-11T11:57:21.710Z,82.52
2019-05-11T12:00:28.807Z,84.33
2019-05-11T12:03:33.796Z,86.14
2019-05-11T12:06:38.958Z,86.50
2019-05-11T12:09:44.128Z,86.27
2019-05-11T12:12:49.305Z,87.45
2019-05-11T12:15:54.452Z,88.63
2019-05-11T12:18:59.543Z,87.51
2019-05-11T12:22:04.793Z,87.01
2019-05-11T12:25:12.175Z,89.33
2019-05-11T12:28:19.028Z,87.27
2019-05-11T12:31:24.301Z,88.41
2019-05-11T12:34:29.471Z,89.52
2019-05-11T12:37:34.599Z,86.61
2019-05-11T12:40:39.787Z,87.67
2019-05-11T12:43:44.968Z,84.41
2019-05-11T12:46:50.243Z,81.39
2019-05-11T12:49:55.371Z,79.70
2019-05-11T12:53:00.622Z,78.22
2019-05-11T12:56:07.977Z,80.27
2019-05-11T12:59:12.731Z,80.03
2019-05-11T13:02:18.553Z,76.31
2019-05-11T13:05:23.823Z,77.97
2019-05-11T13:08:29.059Z,76.97
2019-05-11T13:11:35.222Z,74.11
2019-05-11T13:14:40.380Z,75.62
2019-05-11T13:17:45.628Z,74.38
2019-05-11T13:20:50.755Z,73.58
2019-05-11T13:23:57.714Z,71.26
2019-05-11T13:27:03.050Z,72.41
2019-05-11T13:30:08.527Z,70.23
2019-05-11T13:33:13.767Z,69.04
2019-05-11T13:36:18.958Z,68.61
2019-05-11T13:39:24.307Z,66.28
2019-05-11T13:42:29.543Z,67.67
2019-05-11T13:45:34.712Z,68.82
2019-05-11T13:48:39.853Z,66.78
2019-05-11T13:51:45.033Z,70.89
2019-05-11T13:54:50.298Z,66.86
2019-05-11T13:57:57.692Z,69.76
2019-05-11T14:01:02.431Z,69.44
2019-05-11T14:04:08.483Z,68.04
2019-05-11T14:07:14.366Z,68.38
2019-05-11T14:10:19.781Z,69.57
2019-05-11T14:13:25.046Z,71.92
2019-05-11T14:16:30.248Z,69.42
2019-05-11T14:19:38.265Z,72.55
2019-05-11T14:22:42.570Z,70.98
2019-05-11T14:25:48.622Z,69.21
2019-05-11T14:28:55.203Z,70.28
2019-05-11T14:32:00.721Z,70.04
2019-05-11T14:35:11.909Z,70.24
2019-05-11T14:38:13.641Z,73.72
2019-05-11T14:41:18.883Z,76.15
2019-05-11T14:44:25.132Z,76.06
2019-05-11T14:47:30.382Z,75.84
2019-05-11T14:50:35.606Z,78.61
2019-05-11T14:53:40.972Z,75.64
2019-05-11T14:56:48.152Z,77.74
2019-05-11T14:59:53.279Z,74.69
2019-05-11T15:02:58.643Z,70.56
2019-05-11T15:06:03.881Z,72.70
2019-05-11T15:09:09.083Z,71.11
2019-05-11T15:12:14.478Z,63.77
2019-05-11T15:15:19.756Z,65.73
2019-05-11T15:18:37.972Z,63.03
2019-05-11T15:21:31.899Z,59.54
2019-05-11T15:24:39.727Z,60.84
2019-05-11T15:27:44.924Z,61.18
2019-05-11T15:30:51.014Z,62.20
2019-05-11T15:33:57.718Z,60.36
2019-05-11T15:37:03.102Z,61.36
2019-05-11T15:40:27.909Z,58.71
2019-05-11T15:43:33.483Z,60.05
2019-05-11T15:46:39.304Z,59.81
2019-05-11T15:49:44.842Z,59.87
2019-05-11T15:52:49.993Z,58.79
2019-05-11T15:55:55.157Z,57.45
2019-05-11T15:59:00.313Z,57.74
2019-05-11T16:02:05.502Z,57.72
2019-05-11T16:05:11.008Z,58.19
2019-05-11T16:08:18.628Z,57.61
2019-05-11T16:11:23.197Z,55.60
2019-05-11T16:14:28.453Z,54.76
2019-05-11T16:17:34.858Z,52.99
2019-05-11T16:20:41.203Z,54.40
2019-05-11T16:23:47.964Z,54.19
2019-05-11T16:26:53.299Z,54.04
2019-05-11T16:29:58.507Z,53.93
2019-05-11T16:33:03.726Z,55.43
2019-05-11T16:36:09.240Z,55.94
2019-05-11T16:39:14.708Z,56.26
2019-05-11T16:42:19.890Z,55.89
2019-05-11T16:45:25.064Z,56.15
2019-05-11T16:48:30.250Z,58.11
2019-05-11T16:51:35.472Z,57.06
2019-05-11T16:54:40.632Z,58.17
2019-05-11T16:57:48.358Z,56.92
2019-05-11T17:00:53.112Z,58.37
2019-05-11T17:03:58.308Z,56.05
2019-05-11T17:07:08.258Z,57.60
2019-05-11T17:10:10.493Z,54.93
2019-05-11T17:13:18.149Z,57.48
2019-05-11T17:16:23.395Z,60.81
2019-05-11T17:19:42.513Z,63.23
2019-05-11T17:22:35.455Z,63.84
2019-05-11T17:25:40.632Z,63.92
2019-05-11T17:28:45.847Z,64.84
2019-05-11T17:31:51.009Z,66.68
2019-05-11T17:34:58.099Z,67.26
2019-05-11T17:38:03.430Z,68.89
2019-05-11T17:41:08.706Z,69.95
2019-05-11T17:44:13.849Z,70.71
2019-05-11T17:47:19.169Z,71.08
2019-05-11T17:50:24.675Z,71.05
2019-05-11T17:53:29.992Z,72.34
2019-05-11T17:56:35.614Z,72.78
2019-05-11T17:59:45.119Z,72.42
2019-05-11T18:02:50.440Z,74.36
2019-05-11T18:05:55.663Z,76.13
2019-05-11T18:09:00.859Z,73.59
2019-05-11T18:12:09.737Z,75.17
2019-05-11T18:15:14.660Z,77.57
2019-05-11T18:18:19.958Z,78.36
2019-05-11T18:21:25.249Z,77.87
2019-05-11T18:24:30.462Z,77.97
2019-05-11T18:27:35.593Z,78.48
2019-05-11T18:30:40.790Z,80.51
2019-05-11T18:33:45.948Z,81.18
2019-05-11T18:36:51.185Z,81.04
2019-05-11T18:39:58.442Z,80.83
2019-05-11T18:43:03.230Z,81.60
2019-05-11T18:46:11.528Z,82.46
2019-05-11T18:49:15.287Z,81.60
2019-05-11T18:52:23.515Z,82.91
2019-05-11T18:55:28.713Z,84.38
2019-05-11T18:58:34.817Z,87.16
2019-05-11T19:01:40.046Z,87.20
2019-05-11T19:04:45.275Z,87.10
2019-05-11T19:07:50.557Z,86.92
2019-05-11T19:10:57.806Z,86.59
2019-05-11T19:14:02.575Z,86.46
2019-05-11T19:17:07.884Z,86.38
2019-05-11T19:20:13.185Z,86.85
2019-05-11T19:23:19.180Z,87.78
2019-05-11T19:26:24.620Z,87.97
2019-05-11T19:29:29.847Z,87.81
2019-05-11T19:32:35.045Z,88.48
2019-05-11T19:35:40.352Z,88.73
2019-05-11T19:38:47.697Z,89.35
2019-05-11T19:41:52.349Z,90.31
2019-05-11T19:45:01.112Z,91.55
2019-05-11T19:48:08.422Z,92.64
2019-05-11T19:51:13.237Z,92.91
2019-05-11T19:54:18.777Z,95.92
2019-05-11T19:57:24.117Z,98.89
2019-05-11T20:00:29.419Z,98.82
2019-05-11T20:03:34.739Z,98.56
2019-05-11T20:06:40.093Z,98.85
2019-05-11T20:09:45.258Z,100.17
2019-05-11T20:12:50.444Z,99.56
2019-05-11T20:15:57.686Z,99.65
2019-05-11T20:19:02.638Z,100.98
2019-05-11T20:22:07.785Z,101.14
2019-05-11T20:25:14.203Z,101.33
2019-05-11T20:28:20.170Z,101.46
2019-05-11T20:31:27.586Z,102.42
2019-05-11T20:34:32.649Z,101.95
2019-05-11T20:37:38.466Z,103.36
2019-05-11T20:40:43.807Z,103.86
2019-05-11T20:43:48.989Z,104.79
2019-05-11T20:46:54.263Z,104.96
2019-05-11T20:49:59.450Z,105.78
2019-05-11T20:53:04.635Z,105.19
2019-05-11T20:56:09.858Z,105.08
2019-05-11T20:59:15.038Z,105.48
2019-05-11T21:02:20.295Z,105.82
2019-05-11T21:05:25.628Z,106.42
2019-05-11T21:08:30.823Z,106.98
2019-05-11T21:11:36.063Z,106.97
2019-05-11T21:14:41.369Z,105.94
2019-05-11T21:17:48.205Z,105.82
2019-05-11T21:20:53.544Z,106.60
2019-05-11T21:23:58.708Z,107.35
2019-05-11T21:27:04.008Z,108.40
2019-05-11T21:30:09.918Z,109.19
2019-05-11T21:33:15.300Z,108.50
2019-05-11T21:36:22.199Z,107.77
2019-05-11T21:39:28.716Z,107.48
2019-05-11T21:42:34.483Z,107.09
2019-05-11T21:45:40.741Z,107.70
2019-05-11T21:48:47.839Z,108.29
2019-05-11T21:52:04.108Z,107.99
2019-05-11T21:55:00.145Z,107.99
2019-05-11T21:58:05.506Z,108.12
2019-05-11T22:01:10.728Z,107.04
2019-05-11T22:04:15.948Z,108.21
2019-05-11T22:07:23.209Z,108.25
2019-05-11T22:10:28.425Z,108.32
2019-05-11T22:13:33.745Z,108.91
2019-05-11T22:16:39.042Z,109.00
2019-05-11T22:19:44.224Z,109.37
2019-05-11T22:22:49.420Z,109.70
2019-05-11T22:25:54.548Z,110.18
2019-05-11T22:28:59.645Z,110.04
2019-05-11T22:32:04.794Z,110.21
2019-05-11T22:35:13.208Z,110.25
2019-05-11T22:38:16.989Z,110.47
2019-05-11T22:41:24.855Z,110.66
2019-05-11T22:44:30.038Z,111.41
2019-05-11T22:47:35.164Z,111.39
2019-05-11T22:50:43.450Z,111.44
2019-05-11T22:53:48.051Z,111.96
2019-05-11T22:56:53.970Z,112.02
2019-05-11T23:00:01.666Z,112.39
2019-05-11T23:03:10.591Z,111.89
2019-05-11T23:06:14.539Z,112.20
2019-05-11T23:09:19.690Z,112.21
2019-05-11T23:12:28.509Z,111.98
2019-05-11T23:15:33.313Z,112.18
2019-05-11T23:18:38.968Z,112.14
2019-05-11T23:21:44.151Z,111.81
2019-05-11T23:24:49.270Z,112.08
2019-05-11T23:27:54.452Z,111.91
2019-05-11T23:30:59.783Z,111.68
2019-05-11T23:34:04.914Z,111.94
2019-05-11T23:37:10.088Z,112.09
2019-05-11T23:40:18.048Z,112.20
2019-05-11T23:43:22.352Z,112.32
2019-05-11T23:46:28.439Z,112.37
2019-05-11T23:49:33.858Z,113.09
2019-05-11T23:52:39.094Z,112.82
2019-05-11T23:55:44.253Z,112.63
2019-05-11T23:58:49.444Z,113.14
